sensor_id;sensor_type;location;lat;lon;timestamp;pressure;altitude;pressure_sealevel;temperature;humidity
60055;BME280;45930;53.514;55.904;2023-06-24T00:00:36;49044.81;;;-149.77;78.16
60055;BME280;45930;53.514;55.904;2023-06-24T00:01:37;49005.19;;;-149.77;78.01
60055;BME280;45930;53.514;55.904;2023-06-24T00:02:39;49023.03;;;-149.77;78.25
60055;BME280;45930;53.514;55.904;2023-06-24T00:03:44;49030.94;;;-149.77;78.35
60055;BME280;45930;53.514;55.904;2023-06-24T00:04:48;49009.16;;;-149.77;78.53
60055;BME280;45930;53.514;55.904;2023-06-24T00:05:49;49028.97;;;-149.77;77.69
60055;BME280;45930;53.514;55.904;2023-06-24T00:06:50;49036.91;;;-149.77;77.37
60055;BME280;45930;53.514;55.904;2023-06-24T00:07:52;49011.16;;;-149.77;76.74
60055;BME280;45930;53.514;55.904;2023-06-24T00:08:57;49034.91;;;-149.77;75.05
60055;BME280;45930;53.514;55.904;2023-06-24T00:10:00;49086.41;;;-149.77;73.92
60055;BME280;45930;53.514;55.904;2023-06-24T00:11:04;49131.97;;;-149.77;74.01
60055;BME280;45930;53.514;55.904;2023-06-24T00:12:06;49094.34;;;-149.77;74.10
60055;BME280;45930;53.514;55.904;2023-06-24T00:13:07;49058.69;;;-149.77;74.32
60055;BME280;45930;53.514;55.904;2023-06-24T00:14:08;49080.47;;;-149.77;73.46
60055;BME280;45930;53.514;55.904;2023-06-24T00:15:09;49084.44;;;-149.77;73.04
60055;BME280;45930;53.514;55.904;2023-06-24T00:16:10;49106.22;;;-149.77;73.68
60055;BME280;45930;53.514;55.904;2023-06-24T00:17:11;49064.63;;;-149.77;73.86
60055;BME280;45930;53.514;55.904;2023-06-24T00:18:12;49058.69;;;-149.77;73.99
60055;BME280;45930;53.514;55.904;2023-06-24T00:19:13;49080.47;;;-149.77;74.22
60055;BME280;45930;53.514;55.904;2023-06-24T00:20:14;49076.50;;;-149.77;74.07
60055;BME280;45930;53.514;55.904;2023-06-24T00:21:15;49076.50;;;-149.77;74.20
60055;BME280;45930;53.514;55.904;2023-06-24T00:22:17;49128.00;;;-149.77;73.98
60055;BME280;45930;53.514;55.904;2023-06-24T00:23:22;49092.34;;;-149.77;73.96
60055;BME280;45930;53.514;55.904;2023-06-24T00:24:26;49078.50;;;-149.77;73.81
60055;BME280;45930;53.514;55.904;2023-06-24T00:25:27;49076.50;;;-149.77;73.46
60055;BME280;45930;53.514;55.904;2023-06-24T00:26:27;49094.34;;;-149.77;73.66
60055;BME280;45930;53.514;55.904;2023-06-24T00:27:28;49086.41;;;-149.77;73.46
60055;BME280;45930;53.514;55.904;2023-06-24T00:28:29;49072.53;;;-149.77;73.86
60055;BME280;45930;53.514;55.904;2023-06-24T00:29:30;49064.63;;;-149.77;74.72
60055;BME280;45930;53.514;55.904;2023-06-24T00:30:31;49046.78;;;-149.77;74.81
60055;BME280;45930;53.514;55.904;2023-06-24T00:31:31;49056.69;;;-149.77;75.19
60055;BME280;45930;53.514;55.904;2023-06-24T00:32:32;49048.78;;;-149.77;75.63
60055;BME280;45930;53.514;55.904;2023-06-24T00:33:33;49064.63;;;-149.77;76.17
60055;BME280;45930;53.514;55.904;2023-06-24T00:34:36;49011.16;;;-149.77;76.51
60055;BME280;45930;53.514;55.904;2023-06-24T00:35:37;49013.13;;;-149.77;76.66
60055;BME280;45930;53.514;55.904;2023-06-24T00:36:38;49032.94;;;-149.77;76.08
60055;BME280;45930;53.514;55.904;2023-06-24T00:37:39;49040.84;;;-149.77;75.70
60055;BME280;45930;53.514;55.904;2023-06-24T00:38:40;49038.88;;;-149.77;75.58
60055;BME280;45930;53.514;55.904;2023-06-24T00:39:41;49060.66;;;-149.77;75.47
60055;BME280;45930;53.514;55.904;2023-06-24T00:40:42;49017.09;;;-149.77;75.40
60055;BME280;45930;53.514;55.904;2023-06-24T00:41:43;49052.75;;;-149.77;75.46
60055;BME280;45930;53.514;55.904;2023-06-24T00:42:45;49023.03;;;-149.77;75.52
60055;BME280;45930;53.514;55.904;2023-06-24T00:43:46;49036.91;;;-149.77;75.52
60055;BME280;45930;53.514;55.904;2023-06-24T00:44:48;49044.81;;;-149.77;75.44
60055;BME280;45930;53.514;55.904;2023-06-24T00:45:49;49058.69;;;-149.77;75.15
60055;BME280;45930;53.514;55.904;2023-06-24T00:46:50;49052.75;;;-149.77;75.05
60055;BME280;45930;53.514;55.904;2023-06-24T00:47:51;48999.25;;;-149.77;74.71
60055;BME280;45930;53.514;55.904;2023-06-24T00:48:54;49056.69;;;-149.77;74.88
60055;BME280;45930;53.514;55.904;2023-06-24T00:49:55;49040.84;;;-149.77;75.22
60055;BME280;45930;53.514;55.904;2023-06-24T00:50:57;49054.72;;;-149.77;75.74
60055;BME280;45930;53.514;55.904;2023-06-24T00:51:59;49034.91;;;-149.77;75.54
60055;BME280;45930;53.514;55.904;2023-06-24T00:53:01;49023.03;;;-149.77;75.78
60055;BME280;45930;53.514;55.904;2023-06-24T00:54:02;49015.09;;;-149.77;75.50
60055;BME280;45930;53.514;55.904;2023-06-24T00:55:04;49025.00;;;-149.77;75.44
60055;BME280;45930;53.514;55.904;2023-06-24T00:56:06;49030.94;;;-149.77;75.22
60055;BME280;45930;53.514;55.904;2023-06-24T00:57:07;49032.94;;;-149.77;75.52
60055;BME280;45930;53.514;55.904;2023-06-24T00:58:08;49019.06;;;-149.77;75.80
60055;BME280;45930;53.514;55.904;2023-06-24T00:59:13;49046.78;;;-149.77;75.82
60055;BME280;45930;53.514;55.904;2023-06-24T01:00:16;49040.84;;;-149.77;76.11
60055;BME280;45930;53.514;55.904;2023-06-24T01:01:19;49021.06;;;-149.77;76.65
60055;BME280;45930;53.514;55.904;2023-06-24T01:02:21;49001.25;;;-149.77;77.05
60055;BME280;45930;53.514;55.904;2023-06-24T01:03:26;48995.31;;;-149.77;76.87
60055;BME280;45930;53.514;55.904;2023-06-24T01:04:28;48999.25;;;-149.77;76.87
60055;BME280;45930;53.514;55.904;2023-06-24T01:05:30;49009.16;;;-149.77;76.98
60055;BME280;45930;53.514;55.904;2023-06-24T01:06:36;49001.25;;;-149.77;77.10
60055;BME280;45930;53.514;55.904;2023-06-24T01:07:37;49005.19;;;-149.77;77.37
60055;BME280;45930;53.514;55.904;2023-06-24T01:08:39;48997.28;;;-149.77;77.45
60055;BME280;45930;53.514;55.904;2023-06-24T01:09:39;48981.44;;;-149.77;77.99
60055;BME280;45930;53.514;55.904;2023-06-24T01:10:42;48965.59;;;-149.77;78.08
60055;BME280;45930;53.514;55.904;2023-06-24T01:11:42;48979.47;;;-149.77;77.76
60055;BME280;45930;53.514;55.904;2023-06-24T01:12:43;48973.50;;;-149.77;77.72
60055;BME280;45930;53.514;55.904;2023-06-24T01:13:44;48989.34;;;-149.77;77.59
60055;BME280;45930;53.514;55.904;2023-06-24T01:14:45;48953.72;;;-149.77;77.84
60055;BME280;45930;53.514;55.904;2023-06-24T01:15:46;48979.47;;;-149.77;77.91
60055;BME280;45930;53.514;55.904;2023-06-24T01:17:06;48969.56;;;-149.77;77.84
60055;BME280;45930;53.514;55.904;2023-06-24T01:18:16;48959.66;;;-149.77;78.07
60055;BME280;45930;53.514;55.904;2023-06-24T01:30:18;48951.72;;;-149.77;78.03
60055;BME280;45930;53.514;55.904;2023-06-24T01:32:33;48971.53;;;-149.77;77.89
60055;BME280;45930;53.514;55.904;2023-06-24T01:33:46;48959.66;;;-149.77;77.98
60055;BME280;45930;53.514;55.904;2023-06-24T01:35:01;48949.75;;;-149.77;78.08
60055;BME280;45930;53.514;55.904;2023-06-24T01:36:08;48969.56;;;-149.77;77.88
60055;BME280;45930;53.514;55.904;2023-06-24T01:37:35;48957.66;;;-149.77;77.62
60055;BME280;45930;53.514;55.904;2023-06-24T01:38:48;48945.78;;;-149.77;78.15
60055;BME280;45930;53.514;55.904;2023-06-24T01:41:03;48959.66;;;-149.77;78.52
60055;BME280;45930;53.514;55.904;2023-06-24T01:42:08;48969.56;;;-149.77;78.35
60055;BME280;45930;53.514;55.904;2023-06-24T01:43:11;48941.81;;;-149.77;78.49
60055;BME280;45930;53.514;55.904;2023-06-24T01:44:15;48957.66;;;-149.77;78.56
60055;BME280;45930;53.514;55.904;2023-06-24T01:45:20;48943.81;;;-149.77;78.58
60055;BME280;45930;53.514;55.904;2023-06-24T01:46:25;48965.59;;;-149.77;78.66
60055;BME280;45930;53.514;55.904;2023-06-24T01:47:27;48925.97;;;-149.77;78.66
60055;BME280;45930;53.514;55.904;2023-06-24T01:48:33;48937.88;;;-149.77;77.77
60055;BME280;45930;53.514;55.904;2023-06-24T01:49:39;48973.50;;;-149.77;77.70
60055;BME280;45930;53.514;55.904;2023-06-24T01:50:50;48945.78;;;-149.77;77.21
60055;BME280;45930;53.514;55.904;2023-06-24T01:51:57;48979.47;;;-149.77;77.25
60055;BME280;45930;53.514;55.904;2023-06-24T01:53:01;48967.56;;;-149.77;77.18
60055;BME280;45930;53.514;55.904;2023-06-24T01:54:06;48955.69;;;-149.77;77.22
60055;BME280;45930;53.514;55.904;2023-06-24T01:55:09;48941.81;;;-149.77;77.62
60055;BME280;45930;53.514;55.904;2023-06-24T01:56:14;48963.63;;;-149.77;77.73
60055;BME280;45930;53.514;55.904;2023-06-24T01:57:18;48959.66;;;-149.77;77.93
60055;BME280;45930;53.514;55.904;2023-06-24T01:58:21;48947.75;;;-149.77;77.98
60055;BME280;45930;53.514;55.904;2023-06-24T01:59:23;48939.84;;;-149.77;78.35
60055;BME280;45930;53.514;55.904;2023-06-24T02:00:26;48941.81;;;-149.77;78.23
60055;BME280;45930;53.514;55.904;2023-06-24T02:01:27;48961.63;;;-149.77;78.44
60055;BME280;45930;53.514;55.904;2023-06-24T02:02:29;48910.13;;;-149.77;78.81
60055;BME280;45930;53.514;55.904;2023-06-24T02:03:32;48959.66;;;-149.77;78.64
60055;BME280;45930;53.514;55.904;2023-06-24T02:04:35;48920.03;;;-149.77;79.12
60055;BME280;45930;53.514;55.904;2023-06-24T02:05:36;48906.16;;;-149.77;79.39
60055;BME280;45930;53.514;55.904;2023-06-24T02:06:41;48906.16;;;-149.77;79.05
60055;BME280;45930;53.514;55.904;2023-06-24T02:07:43;48925.97;;;-149.77;78.49
60055;BME280;45930;53.514;55.904;2023-06-24T02:08:48;48920.03;;;-149.77;78.81
60055;BME280;45930;53.514;55.904;2023-06-24T02:09:51;48931.91;;;-149.77;78.38
60055;BME280;45930;53.514;55.904;2023-06-24T02:10:52;48925.97;;;-149.77;78.94
60055;BME280;45930;53.514;55.904;2023-06-24T02:11:55;48910.13;;;-149.77;78.38
60055;BME280;45930;53.514;55.904;2023-06-24T02:12:56;48908.16;;;-149.77;77.63
60055;BME280;45930;53.514;55.904;2023-06-24T02:13:59;48941.81;;;-149.77;76.94
60055;BME280;45930;53.514;55.904;2023-06-24T02:15:01;48959.66;;;-149.77;76.67
60055;BME280;45930;53.514;55.904;2023-06-24T02:16:08;48931.91;;;-149.77;76.92
60055;BME280;45930;53.514;55.904;2023-06-24T02:17:12;48961.63;;;-149.77;76.20
60055;BME280;45930;53.514;55.904;2023-06-24T02:18:14;48953.72;;;-149.77;76.01
60055;BME280;45930;53.514;55.904;2023-06-24T02:19:17;48945.78;;;-149.77;75.86
60055;BME280;45930;53.514;55.904;2023-06-24T02:20:19;48943.81;;;-149.77;75.54
60055;BME280;45930;53.514;55.904;2023-06-24T02:21:23;48969.56;;;-149.77;75.51
60055;BME280;45930;53.514;55.904;2023-06-24T02:22:25;48965.59;;;-149.77;75.19
60055;BME280;45930;53.514;55.904;2023-06-24T02:23:28;48973.50;;;-149.77;74.55
60055;BME280;45930;53.514;55.904;2023-06-24T02:24:29;48975.50;;;-149.77;74.07
60055;BME280;45930;53.514;55.904;2023-06-24T02:25:31;48979.47;;;-149.77;74.00
60055;BME280;45930;53.514;55.904;2023-06-24T02:26:32;48997.28;;;-149.77;73.57
60055;BME280;45930;53.514;55.904;2023-06-24T02:27:35;48997.28;;;-149.77;73.07
60055;BME280;45930;53.514;55.904;2023-06-24T02:28:37;48983.41;;;-149.77;72.74
60055;BME280;45930;53.514;55.904;2023-06-24T02:29:39;48983.41;;;-149.77;72.70
60055;BME280;45930;53.514;55.904;2023-06-24T02:30:42;48993.31;;;-149.77;72.39
60055;BME280;45930;53.514;55.904;2023-06-24T02:31:43;48997.28;;;-149.77;71.66
60055;BME280;45930;53.514;55.904;2023-06-24T02:32:44;49001.25;;;-149.77;70.83
60055;BME280;45930;53.514;55.904;2023-06-24T02:33:45;48993.31;;;-149.77;71.08
60055;BME280;45930;53.514;55.904;2023-06-24T02:34:46;48995.31;;;-149.77;70.87
60055;BME280;45930;53.514;55.904;2023-06-24T02:35:47;49021.06;;;-149.77;69.89
60055;BME280;45930;53.514;55.904;2023-06-24T02:36:48;48985.41;;;-149.77;69.09
60055;BME280;45930;53.514;55.904;2023-06-24T02:37:48;49032.94;;;-149.77;68.48
60055;BME280;45930;53.514;55.904;2023-06-24T02:38:49;49032.94;;;-149.77;68.86
60055;BME280;45930;53.514;55.904;2023-06-24T02:39:50;49032.94;;;-149.77;67.63
60055;BME280;45930;53.514;55.904;2023-06-24T02:40:51;49072.53;;;-149.77;66.68
60055;BME280;45930;53.514;55.904;2023-06-24T02:41:52;49060.66;;;-149.77;66.42
60055;BME280;45930;53.514;55.904;2023-06-24T02:42:53;49064.63;;;-149.77;65.80
60055;BME280;45930;53.514;55.904;2023-06-24T02:43:54;49070.56;;;-149.77;65.13
60055;BME280;45930;53.514;55.904;2023-06-24T02:44:55;49080.47;;;-149.77;65.00
60055;BME280;45930;53.514;55.904;2023-06-24T02:45:56;49110.19;;;-149.77;64.34
60055;BME280;45930;53.514;55.904;2023-06-24T02:46:59;49082.44;;;-149.77;64.11
60055;BME280;45930;53.514;55.904;2023-06-24T02:48:00;49110.19;;;-149.77;64.31
60055;BME280;45930;53.514;55.904;2023-06-24T02:49:02;49092.34;;;-149.77;64.54
60055;BME280;45930;53.514;55.904;2023-06-24T02:50:07;49084.44;;;-149.77;64.20
60055;BME280;45930;53.514;55.904;2023-06-24T02:51:10;49120.09;;;-149.77;63.99
60055;BME280;45930;53.514;55.904;2023-06-24T02:52:10;49094.34;;;-149.77;62.78
60055;BME280;45930;53.514;55.904;2023-06-24T02:53:12;49080.47;;;-149.77;62.62
60055;BME280;45930;53.514;55.904;2023-06-24T02:54:13;49080.47;;;-149.77;62.54
60055;BME280;45930;53.514;55.904;2023-06-24T02:55:15;49096.31;;;-149.77;62.10
60055;BME280;45930;53.514;55.904;2023-06-24T02:56:16;49102.25;;;-149.77;61.86
60055;BME280;45930;53.514;55.904;2023-06-24T02:57:22;49108.19;;;-149.77;61.69
60055;BME280;45930;53.514;55.904;2023-06-24T02:58:24;49098.28;;;-149.77;61.63
60055;BME280;45930;53.514;55.904;2023-06-24T02:59:32;49090.38;;;-149.77;61.41
60055;BME280;45930;53.514;55.904;2023-06-24T03:00:33;49088.41;;;-149.77;61.12
60055;BME280;45930;53.514;55.904;2023-06-24T03:01:36;49090.38;;;-149.77;60.99
60055;BME280;45930;53.514;55.904;2023-06-24T03:02:39;49135.94;;;-149.77;60.43
60055;BME280;45930;53.514;55.904;2023-06-24T03:03:41;49131.97;;;-149.77;60.85
60055;BME280;45930;53.514;55.904;2023-06-24T03:04:43;49116.13;;;-149.77;60.87
60055;BME280;45930;53.514;55.904;2023-06-24T03:05:44;49104.25;;;-149.77;60.91
60055;BME280;45930;53.514;55.904;2023-06-24T03:06:45;49094.34;;;-149.77;60.32
60055;BME280;45930;53.514;55.904;2023-06-24T03:07:46;49104.25;;;-149.77;59.40
60055;BME280;45930;53.514;55.904;2023-06-24T03:08:48;49088.41;;;-149.77;58.33
60055;BME280;45930;53.514;55.904;2023-06-24T03:09:51;49114.16;;;-149.77;58.16
60055;BME280;45930;53.514;55.904;2023-06-24T03:10:54;49135.94;;;-149.77;57.88
60055;BME280;45930;53.514;55.904;2023-06-24T03:11:56;49128.00;;;-149.77;57.61
60055;BME280;45930;53.514;55.904;2023-06-24T03:12:57;49118.09;;;-149.77;57.23
60055;BME280;45930;53.514;55.904;2023-06-24T03:13:59;49128.00;;;-149.77;56.79
60055;BME280;45930;53.514;55.904;2023-06-24T03:15:00;49139.91;;;-149.77;56.10
60055;BME280;45930;53.514;55.904;2023-06-24T03:16:01;49151.78;;;-149.77;55.16
60055;BME280;45930;53.514;55.904;2023-06-24T03:17:02;49193.38;;;-149.77;54.44
60055;BME280;45930;53.514;55.904;2023-06-24T03:18:04;49139.91;;;-149.77;54.55
60055;BME280;45930;53.514;55.904;2023-06-24T03:19:05;49143.84;;;-149.77;53.79
60055;BME280;45930;53.514;55.904;2023-06-24T03:20:06;49145.84;;;-149.77;53.48
60055;BME280;45930;53.514;55.904;2023-06-24T03:21:09;49151.78;;;-149.77;53.49
60055;BME280;45930;53.514;55.904;2023-06-24T03:22:10;49131.97;;;-149.77;53.56
60055;BME280;45930;53.514;55.904;2023-06-24T03:23:11;49143.84;;;-149.77;53.60
60055;BME280;45930;53.514;55.904;2023-06-24T03:24:12;49120.09;;;-149.77;53.44
60055;BME280;45930;53.514;55.904;2023-06-24T03:25:12;49139.91;;;-149.77;53.12
60055;BME280;45930;53.514;55.904;2023-06-24T03:26:13;49157.72;;;-149.77;52.10
60055;BME280;45930;53.514;55.904;2023-06-24T03:27:14;49153.75;;;-149.77;51.92
60055;BME280;45930;53.514;55.904;2023-06-24T03:28:15;49153.75;;;-149.77;51.48
60055;BME280;45930;53.514;55.904;2023-06-24T03:29:16;49151.78;;;-149.77;51.68
60055;BME280;45930;53.514;55.904;2023-06-24T03:30:16;49151.78;;;-149.77;51.76
60055;BME280;45930;53.514;55.904;2023-06-24T03:31:17;49151.78;;;-149.77;51.51
60055;BME280;45930;53.514;55.904;2023-06-24T03:32:18;49173.56;;;-149.77;50.83
60055;BME280;45930;53.514;55.904;2023-06-24T03:33:19;49165.63;;;-149.77;50.42
60055;BME280;45930;53.514;55.904;2023-06-24T03:34:20;49183.47;;;-149.77;49.79
60055;BME280;45930;53.514;55.904;2023-06-24T03:35:21;49151.78;;;-149.77;49.58
60055;BME280;45930;53.514;55.904;2023-06-24T03:36:22;49155.75;;;-149.77;48.96
60055;BME280;45930;53.514;55.904;2023-06-24T03:37:24;49161.69;;;-149.77;48.24
60055;BME280;45930;53.514;55.904;2023-06-24T03:38:25;49159.69;;;-149.77;48.74
60055;BME280;45930;53.514;55.904;2023-06-24T03:39:26;49165.63;;;-149.77;49.10
60055;BME280;45930;53.514;55.904;2023-06-24T03:40:27;49149.78;;;-149.77;48.96
60055;BME280;45930;53.514;55.904;2023-06-24T03:41:27;49149.78;;;-149.77;48.85
60055;BME280;45930;53.514;55.904;2023-06-24T03:42:28;49193.38;;;-149.77;48.59
60055;BME280;45930;53.514;55.904;2023-06-24T03:43:30;49191.38;;;-149.77;47.73
60055;BME280;45930;53.514;55.904;2023-06-24T03:44:30;49181.50;;;-149.77;47.14
60055;BME280;45930;53.514;55.904;2023-06-24T03:45:31;49165.63;;;-149.77;46.83
60055;BME280;45930;53.514;55.904;2023-06-24T03:46:32;49157.72;;;-149.77;46.24
60055;BME280;45930;53.514;55.904;2023-06-24T03:47:33;49153.75;;;-149.77;46.12
60055;BME280;45930;53.514;55.904;2023-06-24T03:48:35;49161.69;;;-149.77;46.16
60055;BME280;45930;53.514;55.904;2023-06-24T03:49:35;49179.50;;;-149.77;46.44
60055;BME280;45930;53.514;55.904;2023-06-24T03:50:36;49187.44;;;-149.77;46.80
60055;BME280;45930;53.514;55.904;2023-06-24T03:51:37;49171.59;;;-149.77;46.71
60055;BME280;45930;53.514;55.904;2023-06-24T03:52:38;49199.31;;;-149.77;46.73
60055;BME280;45930;53.514;55.904;2023-06-24T03:53:39;49163.66;;;-149.77;46.73
60055;BME280;45930;53.514;55.904;2023-06-24T03:54:39;49181.50;;;-149.77;46.23
60055;BME280;45930;53.514;55.904;2023-06-24T03:55:40;49193.38;;;-149.77;46.31
60055;BME280;45930;53.514;55.904;2023-06-24T03:56:41;49175.53;;;-149.77;46.22
60055;BME280;45930;53.514;55.904;2023-06-24T03:57:42;49179.50;;;-149.77;46.14
60055;BME280;45930;53.514;55.904;2023-06-24T03:58:43;49189.41;;;-149.77;45.74
60055;BME280;45930;53.514;55.904;2023-06-24T03:59:43;49173.56;;;-149.77;45.41
60055;BME280;45930;53.514;55.904;2023-06-24T04:00:44;49163.66;;;-149.77;45.08
60055;BME280;45930;53.514;55.904;2023-06-24T04:01:45;49191.38;;;-149.77;45.08
60055;BME280;45930;53.514;55.904;2023-06-24T04:02:46;49201.28;;;-149.77;45.15
60055;BME280;45930;53.514;55.904;2023-06-24T04:03:47;49211.19;;;-149.77;44.56
60055;BME280;45930;53.514;55.904;2023-06-24T04:04:48;49221.09;;;-149.77;44.48
60055;BME280;45930;53.514;55.904;2023-06-24T04:05:55;49203.28;;;-149.77;44.78
60055;BME280;45930;53.514;55.904;2023-06-24T04:06:56;49195.34;;;-149.77;44.22
60055;BME280;45930;53.514;55.904;2023-06-24T04:07:57;49213.19;;;-149.77;43.88
60055;BME280;45930;53.514;55.904;2023-06-24T04:08:57;49191.38;;;-149.77;43.48
60055;BME280;45930;53.514;55.904;2023-06-24T04:09:59;49207.25;;;-149.77;43.05
60055;BME280;45930;53.514;55.904;2023-06-24T04:11:00;49203.28;;;-149.77;43.50
60055;BME280;45930;53.514;55.904;2023-06-24T04:12:03;49225.06;;;-149.77;43.88
60055;BME280;45930;53.514;55.904;2023-06-24T04:13:04;49183.47;;;-149.77;44.28
60055;BME280;45930;53.514;55.904;2023-06-24T04:14:04;49203.28;;;-149.77;44.02
60055;BME280;45930;53.514;55.904;2023-06-24T04:15:07;49215.16;;;-149.77;43.98
60055;BME280;45930;53.514;55.904;2023-06-24T04:16:08;49234.97;;;-149.77;44.13
60055;BME280;45930;53.514;55.904;2023-06-24T04:17:09;49211.19;;;-149.77;44.01
60055;BME280;45930;53.514;55.904;2023-06-24T04:18:10;49238.94;;;-149.77;43.43
60055;BME280;45930;53.514;55.904;2023-06-24T04:19:11;49229.03;;;-149.77;43.10
60055;BME280;45930;53.514;55.904;2023-06-24T04:20:11;49205.25;;;-149.77;42.83
60055;BME280;45930;53.514;55.904;2023-06-24T04:21:12;49211.19;;;-149.77;42.59
60055;BME280;45930;53.514;55.904;2023-06-24T04:22:15;49227.03;;;-149.77;42.45
60055;BME280;45930;53.514;55.904;2023-06-24T04:23:16;49213.19;;;-149.77;42.85
60055;BME280;45930;53.514;55.904;2023-06-24T04:24:16;49231.00;;;-149.77;42.55
60055;BME280;45930;53.514;55.904;2023-06-24T04:25:17;49236.94;;;-149.77;42.60
60055;BME280;45930;53.514;55.904;2023-06-24T04:26:19;49219.13;;;-149.77;42.60
60055;BME280;45930;53.514;55.904;2023-06-24T04:27:23;49231.00;;;-149.77;42.92
60055;BME280;45930;53.514;55.904;2023-06-24T04:28:24;49219.13;;;-149.77;43.15
60055;BME280;45930;53.514;55.904;2023-06-24T04:29:25;49215.16;;;-149.77;43.38
60055;BME280;45930;53.514;55.904;2023-06-24T04:30:25;49219.13;;;-149.77;42.95
60055;BME280;45930;53.514;55.904;2023-06-24T04:31:26;49225.06;;;-149.77;42.45
60055;BME280;45930;53.514;55.904;2023-06-24T04:32:28;49225.06;;;-149.77;42.10
60055;BME280;45930;53.514;55.904;2023-06-24T04:33:29;49238.94;;;-149.77;42.10
60055;BME280;45930;53.514;55.904;2023-06-24T04:34:30;49250.81;;;-149.77;41.25
60055;BME280;45930;53.514;55.904;2023-06-24T04:35:31;49248.84;;;-149.77;41.13
60055;BME280;45930;53.514;55.904;2023-06-24T04:36:32;49231.00;;;-149.77;41.21
60055;BME280;45930;53.514;55.904;2023-06-24T04:37:32;49258.75;;;-149.77;40.78
60055;BME280;45930;53.514;55.904;2023-06-24T04:38:33;49238.94;;;-149.77;41.07
60055;BME280;45930;53.514;55.904;2023-06-24T04:39:34;49209.22;;;-149.77;40.60
60055;BME280;45930;53.514;55.904;2023-06-24T04:40:35;49229.03;;;-149.77;40.14
60055;BME280;45930;53.514;55.904;2023-06-24T04:41:36;49248.84;;;-149.77;39.85
60055;BME280;45930;53.514;55.904;2023-06-24T04:42:36;49236.94;;;-149.77;39.04
60055;BME280;45930;53.514;55.904;2023-06-24T04:43:37;49258.75;;;-149.77;38.75
60055;BME280;45930;53.514;55.904;2023-06-24T04:44:38;49256.75;;;-149.77;38.82
60055;BME280;45930;53.514;55.904;2023-06-24T04:45:39;49238.94;;;-149.77;39.19
60055;BME280;45930;53.514;55.904;2023-06-24T04:46:39;49234.97;;;-149.77;39.61
60055;BME280;45930;53.514;55.904;2023-06-24T04:47:41;49252.78;;;-149.77;39.54
60055;BME280;45930;53.514;55.904;2023-06-24T04:48:41;49246.84;;;-149.77;39.91
60055;BME280;45930;53.514;55.904;2023-06-24T04:49:43;49262.69;;;-149.77;40.31
60055;BME280;45930;53.514;55.904;2023-06-24T04:50:44;49280.53;;;-149.77;40.17
60055;BME280;45930;53.514;55.904;2023-06-24T04:51:44;49290.44;;;-149.77;40.05
60055;BME280;45930;53.514;55.904;2023-06-24T04:52:45;49272.59;;;-149.77;39.94
60055;BME280;45930;53.514;55.904;2023-06-24T04:53:52;49240.91;;;-149.77;38.67
60055;BME280;45930;53.514;55.904;2023-06-24T04:54:53;49270.63;;;-149.77;38.29
60055;BME280;45930;53.514;55.904;2023-06-24T04:55:53;49254.78;;;-149.77;37.52
60055;BME280;45930;53.514;55.904;2023-06-24T04:56:54;49268.63;;;-149.77;37.14
60055;BME280;45930;53.514;55.904;2023-06-24T04:57:56;49272.59;;;-149.77;37.33
60055;BME280;45930;53.514;55.904;2023-06-24T04:58:56;49240.91;;;-149.77;37.48
60055;BME280;45930;53.514;55.904;2023-06-24T04:59:58;49238.94;;;-149.77;38.16
60055;BME280;45930;53.514;55.904;2023-06-24T05:00:59;49272.59;;;-149.77;38.16
60055;BME280;45930;53.514;55.904;2023-06-24T05:02:00;49270.63;;;-149.77;37.46
60055;BME280;45930;53.514;55.904;2023-06-24T05:03:00;49250.81;;;-149.77;37.79
60055;BME280;45930;53.514;55.904;2023-06-24T05:04:01;49258.75;;;-149.77;37.74
60055;BME280;45930;53.514;55.904;2023-06-24T05:05:02;49250.81;;;-149.77;37.41
60055;BME280;45930;53.514;55.904;2023-06-24T05:06:06;49270.63;;;-149.77;37.42
60055;BME280;45930;53.514;55.904;2023-06-24T05:07:07;49252.78;;;-149.77;37.44
60055;BME280;45930;53.514;55.904;2023-06-24T05:08:07;49250.81;;;-149.77;37.60
60055;BME280;45930;53.514;55.904;2023-06-24T05:09:08;49238.94;;;-149.77;37.47
60055;BME280;45930;53.514;55.904;2023-06-24T05:10:13;49296.38;;;-149.77;37.69
60055;BME280;45930;53.514;55.904;2023-06-24T05:11:14;49288.44;;;-149.77;37.24
60055;BME280;45930;53.514;55.904;2023-06-24T05:12:15;49282.50;;;-149.77;37.15
60055;BME280;45930;53.514;55.904;2023-06-24T05:13:16;49292.41;;;-149.77;37.21
60055;BME280;45930;53.514;55.904;2023-06-24T05:14:17;49286.47;;;-149.77;36.69
60055;BME280;45930;53.514;55.904;2023-06-24T05:15:18;49294.41;;;-149.77;36.52
60055;BME280;45930;53.514;55.904;2023-06-24T05:16:18;49298.34;;;-149.77;36.38
60055;BME280;45930;53.514;55.904;2023-06-24T05:17:20;49318.16;;;-149.77;35.98
60055;BME280;45930;53.514;55.904;2023-06-24T05:18:21;49274.59;;;-149.77;35.49
60055;BME280;45930;53.514;55.904;2023-06-24T05:19:21;49320.16;;;-149.77;35.03
60055;BME280;45930;53.514;55.904;2023-06-24T05:20:22;49288.44;;;-149.77;35.08
60055;BME280;45930;53.514;55.904;2023-06-24T05:21:23;49302.31;;;-149.77;35.46
60055;BME280;45930;53.514;55.904;2023-06-24T05:22:24;49310.25;;;-149.77;36.00
60055;BME280;45930;53.514;55.904;2023-06-24T05:23:25;49278.53;;;-149.77;35.54
60055;BME280;45930;53.514;55.904;2023-06-24T05:24:25;49270.63;;;-149.77;35.21
60055;BME280;45930;53.514;55.904;2023-06-24T05:25:26;49278.53;;;-149.77;34.92
60055;BME280;45930;53.514;55.904;2023-06-24T05:26:27;49290.44;;;-149.77;35.29
60055;BME280;45930;53.514;55.904;2023-06-24T05:27:29;49310.25;;;-149.77;35.53
60055;BME280;45930;53.514;55.904;2023-06-24T05:28:29;49294.41;;;-149.77;35.43
60055;BME280;45930;53.514;55.904;2023-06-24T05:29:30;49318.16;;;-149.77;35.18